Modern Express — H9DG — position and weather

sailwx.info

Track history (hours):
 
Tides and Currents Weather Stations Pressure Air Temp Water Temp Dewpoint Dewpoint Depression Visibility Wind Speed Wind Dir Waves Ship Positions

Modern Express

Last reported at 2014-Nov-07 06:04 UTC. Time now 2014-Nov-27 13:09 UTC.
Position N 49°52' W 003°17'.
Warning: this ship's position is 20 days out of date.

Length 164 m; beam 28 m.

Type: Cargo ship. MMSI: 356187000.

Date/timePositionNaut miles runAvg speedWind from/ knotsBaromVisibWave heightAir tempDewpointWater temp
2014-Nov-07 06:04N 49°52' W 003°17'610.9
2014-Nov-07 05:31N 49°55' W 003°09'1212.2
2014-Nov-07 04:33N 50°01' W 002°53'1413.5
2014-Nov-07 03:33N 50°05' W 002°33'7915.6
2014-Nov-06 22:28N 49°38' W 000°37'1314.1
2014-Nov-06 21:33N 49°32' W 000°19'1211.5
2014-Nov-06 20:33N 49°31' W 000°02'8 7.9
2014-Nov-06 19:33N 49°29' E 000°10'1 1.2
2014-Nov-06 18:33N 49°28' E 000°12'0 0.0
2014-Nov-06 17:27N 49°28' E 000°12'0 0.0
2014-Nov-06 16:33N 49°28' E 000°12'0 0.0
2014-Nov-06 15:27N 49°28' E 000°12'0 0.0
2014-Nov-06 14:33N 49°28' E 000°12'0 0.0
2014-Nov-06 13:33N 49°28' E 000°12'0 0.0
2014-Nov-06 12:33N 49°28' E 000°12'0 0.0
2014-Nov-06 11:33N 49°28' E 000°12'0 0.0
2014-Nov-06 10:27N 49°28' E 000°12'0 0.0
2014-Nov-06 09:30N 49°28' E 000°12'0 0.0
2014-Nov-06 08:33N 49°28' E 000°12'0 0.0
2014-Nov-06 07:27N 49°28' E 000°12'0 0.0
2014-Nov-06 06:33N 49°28' E 000°12'0 0.0
2014-Nov-06 05:27N 49°28' E 000°12'0 0.0
2014-Nov-06 04:33N 49°28' E 000°12'0 0.0
2014-Nov-06 03:33N 49°28' E 000°12'0 0.0
2014-Nov-06 02:33N 49°28' E 000°12'0 0.0
2014-Nov-06 01:33N 49°28' E 000°12'1 1.1
2014-Nov-06 00:34N 49°29' E 000°10'4 4.4
2014-Nov-05 23:34N 49°29' E 000°04'8 7.6
2014-Nov-05 22:33N 49°33' W 000°07'1110.4
2014-Nov-05 21:32N 49°44' W 000°09'9513.7
2014-Nov-05 14:34N 51°00' E 001°20'1515.1
2014-Nov-05 13:34N 51°10' E 001°39'1413.8
2014-Nov-05 12:33N 51°20' E 001°54'1211.6
2014-Nov-05 11:33N 51°23' E 002°12'1313.1
2014-Nov-05 10:33N 51°23' E 002°33'1312.7
2014-Nov-05 09:32N 51°23' E 002°54'1313.6
2014-Nov-05 08:33N 51°25' E 003°15'1312.6
2014-Nov-05 07:33N 51°26' E 003°35'1111.4
2014-Nov-05 06:33N 51°21' E 003°51'1110.6
2014-Nov-05 05:33N 51°22' E 004°08'9 8.9
2014-Nov-05 04:34N 51°16' E 004°18'1 0.9
2014-Nov-05 03:34N 51°16' E 004°17'2 2.2
2014-Nov-05 02:33N 51°16' E 004°13'0 0.0
2014-Nov-05 01:33N 51°16' E 004°13'0 0.0
2014-Nov-05 00:33N 51°16' E 004°13'0 0.0
2014-Nov-04 23:33N 51°16' E 004°13'0 0.0
2014-Nov-04 22:33N 51°16' E 004°13'0 0.0
2014-Nov-04 21:30N 51°16' E 004°13'0 0.0
2014-Nov-04 20:30N 51°16' E 004°13'0 0.0
2014-Nov-04 19:29N 51°16' E 004°13'0 0.0
2014-Nov-04 18:29N 51°16' E 004°13'0 0.0
2014-Nov-04 17:29N 51°16' E 004°13'0 0.0
2014-Nov-04 16:32N 51°16' E 004°13'0 0.0
2014-Nov-04 15:32N 51°16' E 004°13'0 0.0
2014-Nov-04 14:29N 51°16' E 004°13'0 0.0
2014-Nov-04 13:32N 51°16' E 004°13'0 0.0
2014-Nov-04 12:29N 51°16' E 004°13'0 0.0
2014-Nov-04 11:32N 51°16' E 004°13'0 0.0
2014-Nov-04 10:29N 51°16' E 004°13'0 0.0
2014-Nov-04 09:32N 51°16' E 004°13'0 0.0
2014-Nov-04 08:32N 51°16' E 004°13'0 0.0
2014-Nov-04 07:32N 51°16' E 004°13'0 0.0
2014-Nov-04 06:32N 51°16' E 004°13'0 0.0
2014-Nov-04 05:26N 51°16' E 004°13'0 0.0
2014-Nov-04 04:32N 51°16' E 004°13'0 0.0
2014-Nov-04 03:32N 51°16' E 004°13'0 0.0
2014-Nov-04 02:32N 51°16' E 004°13'0 0.0
2014-Nov-04 01:32N 51°16' E 004°13'0 0.0
2014-Nov-04 00:32N 51°16' E 004°13'0 0.0
2014-Nov-03 23:32N 51°16' E 004°13'0 0.0
2014-Nov-03 22:32N 51°16' E 004°13'0 0.0
2014-Nov-03 21:29N 51°16' E 004°13'0 0.0
2014-Nov-03 20:32N 51°16' E 004°13'0 0.0
2014-Nov-03 19:32N 51°16' E 004°13'0 0.0
2014-Nov-03 19:08N 51°16' E 004°13'0 0.0
2014-Nov-03 18:32N 51°16' E 004°13'0 0.0
2014-Nov-03 18:11N 51°16' E 004°13'0 0.0
2014-Nov-03 17:50N 51°16' E 004°13'0 0.0
2014-Nov-03 17:29N 51°16' E 004°13'0 0.0
2014-Nov-03 16:32N 51°16' E 004°13'0 0.0
2014-Nov-03 14:32N 51°16' E 004°13'0 0.0
2014-Nov-03 13:32N 51°16' E 004°13'0 0.0
2014-Nov-03 12:32N 51°16' E 004°13'0 0.0
2014-Nov-03 11:32N 51°16' E 004°13'0 0.0
2014-Nov-03 10:32N 51°16' E 004°13'0 0.0
2014-Nov-03 09:32N 51°16' E 004°13'0 0.0
2014-Nov-03 08:32N 51°16' E 004°13'0 0.0
2014-Nov-03 07:32N 51°16' E 004°13'0 0.0
2014-Nov-03 06:32N 51°16' E 004°13'0 0.0
2014-Nov-03 05:32N 51°16' E 004°13'0 0.0
2014-Nov-03 04:32N 51°16' E 004°13'0 0.0
2014-Nov-03 03:32N 51°16' E 004°13'0 0.0
2014-Nov-03 02:29N 51°16' E 004°13'0 0.0
2014-Nov-03 01:26N 51°16' E 004°13'0 0.0
2014-Nov-03 00:32N 51°16' E 004°13'0 0.0
2014-Nov-02 23:32N 51°16' E 004°13'0 0.0
2014-Nov-02 22:32N 51°16' E 004°13'0 0.0
2014-Nov-02 21:33N 51°16' E 004°13'0 0.0
2014-Nov-02 20:32N 51°16' E 004°13'0 0.0
2014-Nov-02 19:32N 51°16' E 004°13'0 0.0
2014-Nov-02 18:29N 51°16' E 004°13'0 0.0
2014-Nov-02 17:32N 51°16' E 004°13'0 0.0
2014-Nov-02 16:20N 51°16' E 004°13'0 0.0
2014-Nov-02 15:32N 51°16' E 004°13'0 0.0
2014-Nov-02 14:32N 51°16' E 004°13'0 0.0
2014-Nov-02 13:29N 51°16' E 004°13'0 0.0
2014-Nov-02 12:32N 51°16' E 004°13'0 0.0
2014-Nov-02 11:32N 51°16' E 004°13'0 0.0
2014-Nov-02 10:32N 51°16' E 004°13'0 0.0
2014-Nov-02 09:32N 51°16' E 004°13'0 0.0
2014-Nov-02 08:32N 51°16' E 004°13'0 0.0
2014-Nov-02 07:29N 51°16' E 004°13'0 0.0
2014-Nov-02 06:23N 51°16' E 004°13'0 0.0
2014-Nov-02 05:32N 51°16' E 004°13'0 0.0
2014-Nov-02 04:32N 51°16' E 004°13'0 0.0
2014-Nov-02 03:32N 51°16' E 004°13'0 0.0
2014-Nov-02 02:32N 51°16' E 004°13'0 0.0
2014-Nov-02 01:32N 51°16' E 004°13'0 0.0
2014-Nov-02 00:32N 51°16' E 004°13'0 0.0
2014-Nov-01 23:32N 51°16' E 004°13'0 0.0
2014-Nov-01 22:29N 51°16' E 004°13'0 0.0
2014-Nov-01 21:32N 51°16' E 004°13'0 0.0
2014-Nov-01 20:32N 51°16' E 004°13'0 0.0
2014-Nov-01 19:32N 51°16' E 004°13'0 0.0
2014-Nov-01 18:32N 51°16' E 004°13'0 0.0
2014-Nov-01 17:32N 51°16' E 004°13'0 0.0
2014-Nov-01 16:32N 51°16' E 004°13'0 0.0
2014-Nov-01 15:32N 51°16' E 004°13'0 0.0
2014-Nov-01 14:32N 51°16' E 004°13'0 0.0
2014-Nov-01 13:32N 51°16' E 004°13'0 0.0
2014-Nov-01 12:32N 51°16' E 004°13'0 0.0
2014-Nov-01 11:29N 51°16' E 004°13'0 0.0
2014-Nov-01 10:26N 51°16' E 004°13'0 0.0
2014-Nov-01 09:26N 51°16' E 004°13'0 0.0
2014-Nov-01 08:32N 51°16' E 004°13'0 0.0
2014-Nov-01 07:32N 51°16' E 004°13'0 0.0
2014-Nov-01 06:32N 51°16' E 004°13'0 0.0
2014-Nov-01 05:26N 51°16' E 004°13'0 0.0
2014-Nov-01 04:32N 51°16' E 004°13'0 0.0
2014-Nov-01 03:33N 51°16' E 004°13'0 0.0
2014-Nov-01 02:32N 51°16' E 004°13'0 0.0
2014-Nov-01 01:32N 51°16' E 004°13'0 0.0
2014-Nov-01 00:32N 51°16' E 004°13'0 0.0
2014-Oct-31 23:32N 51°16' E 004°13'0 0.0
2014-Oct-31 22:32N 51°16' E 004°13'0 0.0
2014-Oct-31 21:32N 51°16' E 004°13'0 0.0
2014-Oct-31 20:32N 51°16' E 004°13'0 0.0
2014-Oct-31 19:29N 51°16' E 004°13'0 0.0
2014-Oct-31 18:32N 51°16' E 004°13'0 0.0
2014-Oct-31 17:32N 51°16' E 004°13'0 0.0
2014-Oct-31 16:32N 51°16' E 004°13'0 0.0
2014-Oct-31 15:32N 51°16' E 004°13'0 0.0
2014-Oct-31 14:32N 51°16' E 004°13'0 0.0
2014-Oct-31 13:29N 51°16' E 004°13'0 0.0
2014-Oct-31 12:29N 51°16' E 004°13'0 0.0
2014-Oct-31 11:32N 51°16' E 004°13'0 0.0
2014-Oct-31 10:29N 51°16' E 004°13'0 0.0
2014-Oct-31 09:32N 51°16' E 004°13'0 0.0
2014-Oct-31 08:32N 51°16' E 004°13'0 0.0
2014-Oct-31 07:32N 51°16' E 004°13'0 0.0
2014-Oct-31 06:29N 51°16' E 004°13'0 0.0
2014-Oct-31 05:32N 51°16' E 004°13'0 0.0
2014-Oct-31 04:32N 51°16' E 004°13'0 0.0
2014-Oct-31 03:32N 51°16' E 004°13'0 0.0
2014-Oct-31 02:32N 51°16' E 004°13'0 0.0
2014-Oct-31 01:32N 51°16' E 004°13'0 0.0
2014-Oct-31 00:32N 51°16' E 004°13'0 0.0
2014-Oct-30 23:32N 51°16' E 004°13'0 0.0
2014-Oct-30 22:32N 51°16' E 004°13'0 0.0
2014-Oct-30 21:32N 51°16' E 004°13'0 0.0
2014-Oct-30 20:32N 51°16' E 004°13'0 0.0
2014-Oct-30 19:29N 51°16' E 004°13'0 0.0
2014-Oct-30 18:32N 51°16' E 004°13'0 0.0
2014-Oct-30 17:29N 51°16' E 004°13'0 0.0
2014-Oct-30 16:32N 51°16' E 004°13'0 0.0
2014-Oct-30 15:26N 51°16' E 004°13'0 0.0
2014-Oct-30 14:32N 51°16' E 004°13'0 0.0
2014-Oct-30 13:32N 51°16' E 004°13'0 0.0
2014-Oct-30 12:32N 51°16' E 004°13'0 0.0
2014-Oct-30 11:32N 51°16' E 004°13'0 0.0
2014-Oct-30 10:29N 51°16' E 004°13'0 0.0
2014-Oct-30 09:32N 51°16' E 004°13'0 0.0
2014-Oct-30 08:32N 51°16' E 004°13'0 0.0
2014-Oct-30 07:32N 51°16' E 004°13'0 0.0
2014-Oct-30 06:29N 51°16' E 004°13'0 0.0
2014-Oct-30 05:32N 51°16' E 004°13'0 0.0
2014-Oct-30 04:32N 51°16' E 004°13'0 0.0
2014-Oct-30 03:32N 51°16' E 004°13'0 0.0
2014-Oct-30 02:32N 51°16' E 004°13'0 0.0
2014-Oct-30 01:26N 51°16' E 004°13'0 0.0
2014-Oct-30 00:32N 51°16' E 004°13'0 0.0
2014-Oct-29 23:32N 51°16' E 004°13'0 0.0
2014-Oct-29 22:32N 51°16' E 004°13'0 0.0
2014-Oct-29 21:26N 51°16' E 004°13'0 0.0
2014-Oct-29 20:32N 51°16' E 004°13'0 0.0
2014-Oct-29 19:29N 51°16' E 004°13'0 0.0
2014-Oct-29 18:32N 51°16' E 004°13'0 0.0
2014-Oct-29 17:32N 51°16' E 004°13'0 0.0
2014-Oct-29 16:26N 51°16' E 004°13'0 0.0
2014-Oct-29 15:32N 51°16' E 004°13'0 0.0
2014-Oct-29 14:32N 51°16' E 004°13'0 0.0
2014-Oct-29 13:29N 51°16' E 004°13'0 0.0
2014-Oct-29 12:32N 51°16' E 004°13'0 0.0
2014-Oct-29 11:32N 51°16' E 004°13'0 0.0
2014-Oct-29 10:32N 51°16' E 004°13'0 0.0
2014-Oct-29 09:32N 51°16' E 004°13'0 0.0
2014-Oct-29 08:32N 51°16' E 004°13'0 0.0
2014-Oct-29 07:32N 51°16' E 004°13'0 0.0
2014-Oct-29 06:32N 51°16' E 004°13'0 0.0
2014-Oct-29 05:32N 51°16' E 004°13'0 0.0
2014-Oct-29 04:32N 51°16' E 004°13'0 0.0
2014-Oct-29 03:26N 51°16' E 004°13'0 0.0
2014-Oct-29 02:29N 51°16' E 004°13'0 0.0
2014-Oct-29 01:32N 51°16' E 004°13'0 0.0
2014-Oct-29 00:29N 51°16' E 004°13'0 0.0
2014-Oct-28 23:32N 51°16' E 004°13'0 0.0
2014-Oct-28 22:32N 51°16' E 004°13'0 0.0
2014-Oct-28 21:26N 51°16' E 004°13'0 0.0
2014-Oct-28 20:32N 51°16' E 004°13'0 0.0
2014-Oct-28 19:32N 51°16' E 004°13'0 0.0
2014-Oct-28 18:23N 51°16' E 004°13'0 0.0
2014-Oct-28 17:32N 51°16' E 004°13'0 0.0
2014-Oct-28 16:32N 51°16' E 004°13'0 0.0
2014-Oct-28 15:26N 51°16' E 004°13'0 0.0
2014-Oct-28 14:26N 51°16' E 004°13'0 0.0
2014-Oct-28 13:32N 51°16' E 004°13'0 0.0
2014-Oct-28 12:29N 51°16' E 004°13'0 0.0
2014-Oct-28 11:32N 51°16' E 004°13'0 0.0
2014-Oct-28 10:32N 51°16' E 004°13'0 0.0
2014-Oct-28 09:29N 51°16' E 004°13'0 0.0
2014-Oct-28 08:26N 51°16' E 004°13'0 0.0
2014-Oct-28 07:26N 51°16' E 004°13'0 0.0
2014-Oct-28 06:32N 51°16' E 004°13'  
Track history (hours):
 
Tides and Currents Weather Stations Pressure Air Temp Water Temp Dewpoint Dewpoint Depression Visibility Wind Speed Wind Dir Waves Ship Positions

Modern Express

Last reported at 2014-Nov-07 06:04 UTC. Time now 2014-Nov-27 13:09 UTC.
Position N 49°52' W 003°17'.
Warning: this ship's position is 20 days out of date.

Length 164 m; beam 28 m.

Type: Cargo ship. MMSI: 356187000.

Date/timePositionNaut miles runAvg speedWind from/ knotsBaromVisibWave heightAir tempDewpointWater temp
2014-Nov-07 06:04N 49°52' W 003°17'610.9
2014-Nov-07 05:31N 49°55' W 003°09'1212.2
2014-Nov-07 04:33N 50°01' W 002°53'1413.5
2014-Nov-07 03:33N 50°05' W 002°33'7915.6
2014-Nov-06 22:28N 49°38' W 000°37'1314.1
2014-Nov-06 21:33N 49°32' W 000°19'1211.5
2014-Nov-06 20:33N 49°31' W 000°02'8 7.9
2014-Nov-06 19:33N 49°29' E 000°10'1 1.2
2014-Nov-06 18:33N 49°28' E 000°12'0 0.0
2014-Nov-06 17:27N 49°28' E 000°12'0 0.0
2014-Nov-06 16:33N 49°28' E 000°12'0 0.0
2014-Nov-06 15:27N 49°28' E 000°12'0 0.0
2014-Nov-06 14:33N 49°28' E 000°12'0 0.0
2014-Nov-06 13:33N 49°28' E 000°12'0 0.0
2014-Nov-06 12:33N 49°28' E 000°12'0 0.0
2014-Nov-06 11:33N 49°28' E 000°12'0 0.0
2014-Nov-06 10:27N 49°28' E 000°12'0 0.0
2014-Nov-06 09:30N 49°28' E 000°12'0 0.0
2014-Nov-06 08:33N 49°28' E 000°12'0 0.0
2014-Nov-06 07:27N 49°28' E 000°12'0 0.0
2014-Nov-06 06:33N 49°28' E 000°12'0 0.0
2014-Nov-06 05:27N 49°28' E 000°12'0 0.0
2014-Nov-06 04:33N 49°28' E 000°12'0 0.0
2014-Nov-06 03:33N 49°28' E 000°12'0 0.0
2014-Nov-06 02:33N 49°28' E 000°12'0 0.0
2014-Nov-06 01:33N 49°28' E 000°12'1 1.1
2014-Nov-06 00:34N 49°29' E 000°10'4 4.4
2014-Nov-05 23:34N 49°29' E 000°04'8 7.6
2014-Nov-05 22:33N 49°33' W 000°07'1110.4
2014-Nov-05 21:32N 49°44' W 000°09'9513.7
2014-Nov-05 14:34N 51°00' E 001°20'1515.1
2014-Nov-05 13:34N 51°10' E 001°39'1413.8
2014-Nov-05 12:33N 51°20' E 001°54'1211.6
2014-Nov-05 11:33N 51°23' E 002°12'1313.1
2014-Nov-05 10:33N 51°23' E 002°33'1312.7
2014-Nov-05 09:32N 51°23' E 002°54'1313.6
2014-Nov-05 08:33N 51°25' E 003°15'1312.6
2014-Nov-05 07:33N 51°26' E 003°35'1111.4
2014-Nov-05 06:33N 51°21' E 003°51'1110.6
2014-Nov-05 05:33N 51°22' E 004°08'9 8.9
2014-Nov-05 04:34N 51°16' E 004°18'1 0.9
2014-Nov-05 03:34N 51°16' E 004°17'2 2.2
2014-Nov-05 02:33N 51°16' E 004°13'0 0.0
2014-Nov-05 01:33N 51°16' E 004°13'0 0.0
2014-Nov-05 00:33N 51°16' E 004°13'0 0.0
2014-Nov-04 23:33N 51°16' E 004°13'0 0.0
2014-Nov-04 22:33N 51°16' E 004°13'0 0.0
2014-Nov-04 21:30N 51°16' E 004°13'0 0.0
2014-Nov-04 20:30N 51°16' E 004°13'0 0.0
2014-Nov-04 19:29N 51°16' E 004°13'0 0.0
2014-Nov-04 18:29N 51°16' E 004°13'0 0.0
2014-Nov-04 17:29N 51°16' E 004°13'0 0.0
2014-Nov-04 16:32N 51°16' E 004°13'0 0.0
2014-Nov-04 15:32N 51°16' E 004°13'0 0.0
2014-Nov-04 14:29N 51°16' E 004°13'0 0.0
2014-Nov-04 13:32N 51°16' E 004°13'0 0.0
2014-Nov-04 12:29N 51°16' E 004°13'0 0.0
2014-Nov-04 11:32N 51°16' E 004°13'0 0.0
2014-Nov-04 10:29N 51°16' E 004°13'0 0.0
2014-Nov-04 09:32N 51°16' E 004°13'0 0.0
2014-Nov-04 08:32N 51°16' E 004°13'0 0.0
2014-Nov-04 07:32N 51°16' E 004°13'0 0.0
2014-Nov-04 06:32N 51°16' E 004°13'0 0.0
2014-Nov-04 05:26N 51°16' E 004°13'0 0.0
2014-Nov-04 04:32N 51°16' E 004°13'0 0.0
2014-Nov-04 03:32N 51°16' E 004°13'0 0.0
2014-Nov-04 02:32N 51°16' E 004°13'0 0.0
2014-Nov-04 01:32N 51°16' E 004°13'0 0.0
2014-Nov-04 00:32N 51°16' E 004°13'0 0.0
2014-Nov-03 23:32N 51°16' E 004°13'0 0.0
2014-Nov-03 22:32N 51°16' E 004°13'0 0.0
2014-Nov-03 21:29N 51°16' E 004°13'0 0.0
2014-Nov-03 20:32N 51°16' E 004°13'0 0.0
2014-Nov-03 19:32N 51°16' E 004°13'0 0.0
2014-Nov-03 19:08N 51°16' E 004°13'0 0.0
2014-Nov-03 18:32N 51°16' E 004°13'0 0.0
2014-Nov-03 18:11N 51°16' E 004°13'0 0.0
2014-Nov-03 17:50N 51°16' E 004°13'0 0.0
2014-Nov-03 17:29N 51°16' E 004°13'0 0.0
2014-Nov-03 16:32N 51°16' E 004°13'0 0.0
2014-Nov-03 14:32N 51°16' E 004°13'0 0.0
2014-Nov-03 13:32N 51°16' E 004°13'0 0.0
2014-Nov-03 12:32N 51°16' E 004°13'0 0.0
2014-Nov-03 11:32N 51°16' E 004°13'0 0.0
2014-Nov-03 10:32N 51°16' E 004°13'0 0.0
2014-Nov-03 09:32N 51°16' E 004°13'0 0.0
2014-Nov-03 08:32N 51°16' E 004°13'0 0.0
2014-Nov-03 07:32N 51°16' E 004°13'0 0.0
2014-Nov-03 06:32N 51°16' E 004°13'0 0.0
2014-Nov-03 05:32N 51°16' E 004°13'0 0.0
2014-Nov-03 04:32N 51°16' E 004°13'0 0.0
2014-Nov-03 03:32N 51°16' E 004°13'0 0.0
2014-Nov-03 02:29N 51°16' E 004°13'0 0.0
2014-Nov-03 01:26N 51°16' E 004°13'0 0.0
2014-Nov-03 00:32N 51°16' E 004°13'0 0.0
2014-Nov-02 23:32N 51°16' E 004°13'0 0.0
2014-Nov-02 22:32N 51°16' E 004°13'0 0.0
2014-Nov-02 21:33N 51°16' E 004°13'0 0.0
2014-Nov-02 20:32N 51°16' E 004°13'0 0.0
2014-Nov-02 19:32N 51°16' E 004°13'0 0.0
2014-Nov-02 18:29N 51°16' E 004°13'0 0.0
2014-Nov-02 17:32N 51°16' E 004°13'0 0.0
2014-Nov-02 16:20N 51°16' E 004°13'0 0.0
2014-Nov-02 15:32N 51°16' E 004°13'0 0.0
2014-Nov-02 14:32N 51°16' E 004°13'0 0.0
2014-Nov-02 13:29N 51°16' E 004°13'0 0.0
2014-Nov-02 12:32N 51°16' E 004°13'0 0.0
2014-Nov-02 11:32N 51°16' E 004°13'0 0.0
2014-Nov-02 10:32N 51°16' E 004°13'0 0.0
2014-Nov-02 09:32N 51°16' E 004°13'0 0.0
2014-Nov-02 08:32N 51°16' E 004°13'0 0.0
2014-Nov-02 07:29N 51°16' E 004°13'0 0.0
2014-Nov-02 06:23N 51°16' E 004°13'0 0.0
2014-Nov-02 05:32N 51°16' E 004°13'0 0.0
2014-Nov-02 04:32N 51°16' E 004°13'0 0.0
2014-Nov-02 03:32N 51°16' E 004°13'0 0.0
2014-Nov-02 02:32N 51°16' E 004°13'0 0.0
2014-Nov-02 01:32N 51°16' E 004°13'0 0.0
2014-Nov-02 00:32N 51°16' E 004°13'0 0.0
2014-Nov-01 23:32N 51°16' E 004°13'0 0.0
2014-Nov-01 22:29N 51°16' E 004°13'0 0.0
2014-Nov-01 21:32N 51°16' E 004°13'0 0.0
2014-Nov-01 20:32N 51°16' E 004°13'0 0.0
2014-Nov-01 19:32N 51°16' E 004°13'0 0.0
2014-Nov-01 18:32N 51°16' E 004°13'0 0.0
2014-Nov-01 17:32N 51°16' E 004°13'0 0.0
2014-Nov-01 16:32N 51°16' E 004°13'0 0.0
2014-Nov-01 15:32N 51°16' E 004°13'0 0.0
2014-Nov-01 14:32N 51°16' E 004°13'0 0.0
2014-Nov-01 13:32N 51°16' E 004°13'0 0.0
2014-Nov-01 12:32N 51°16' E 004°13'0 0.0
2014-Nov-01 11:29N 51°16' E 004°13'0 0.0
2014-Nov-01 10:26N 51°16' E 004°13'0 0.0
2014-Nov-01 09:26N 51°16' E 004°13'0 0.0
2014-Nov-01 08:32N 51°16' E 004°13'0 0.0
2014-Nov-01 07:32N 51°16' E 004°13'0 0.0
2014-Nov-01 06:32N 51°16' E 004°13'0 0.0
2014-Nov-01 05:26N 51°16' E 004°13'0 0.0
2014-Nov-01 04:32N 51°16' E 004°13'0 0.0
2014-Nov-01 03:33N 51°16' E 004°13'0 0.0
2014-Nov-01 02:32N 51°16' E 004°13'0 0.0
2014-Nov-01 01:32N 51°16' E 004°13'0 0.0
2014-Nov-01 00:32N 51°16' E 004°13'0 0.0
2014-Oct-31 23:32N 51°16' E 004°13'0 0.0
2014-Oct-31 22:32N 51°16' E 004°13'0 0.0
2014-Oct-31 21:32N 51°16' E 004°13'0 0.0
2014-Oct-31 20:32N 51°16' E 004°13'0 0.0
2014-Oct-31 19:29N 51°16' E 004°13'0 0.0
2014-Oct-31 18:32N 51°16' E 004°13'0 0.0
2014-Oct-31 17:32N 51°16' E 004°13'0 0.0
2014-Oct-31 16:32N 51°16' E 004°13'0 0.0
2014-Oct-31 15:32N 51°16' E 004°13'0 0.0
2014-Oct-31 14:32N 51°16' E 004°13'0 0.0
2014-Oct-31 13:29N 51°16' E 004°13'0 0.0
2014-Oct-31 12:29N 51°16' E 004°13'0 0.0
2014-Oct-31 11:32N 51°16' E 004°13'0 0.0
2014-Oct-31 10:29N 51°16' E 004°13'0 0.0
2014-Oct-31 09:32N 51°16' E 004°13'0 0.0
2014-Oct-31 08:32N 51°16' E 004°13'0 0.0
2014-Oct-31 07:32N 51°16' E 004°13'0 0.0
2014-Oct-31 06:29N 51°16' E 004°13'0 0.0
2014-Oct-31 05:32N 51°16' E 004°13'0 0.0
2014-Oct-31 04:32N 51°16' E 004°13'0 0.0
2014-Oct-31 03:32N 51°16' E 004°13'0 0.0
2014-Oct-31 02:32N 51°16' E 004°13'0 0.0
2014-Oct-31 01:32N 51°16' E 004°13'0 0.0
2014-Oct-31 00:32N 51°16' E 004°13'0 0.0
2014-Oct-30 23:32N 51°16' E 004°13'0 0.0
2014-Oct-30 22:32N 51°16' E 004°13'0 0.0
2014-Oct-30 21:32N 51°16' E 004°13'0 0.0
2014-Oct-30 20:32N 51°16' E 004°13'0 0.0
2014-Oct-30 19:29N 51°16' E 004°13'0 0.0
2014-Oct-30 18:32N 51°16' E 004°13'0 0.0
2014-Oct-30 17:29N 51°16' E 004°13'0 0.0
2014-Oct-30 16:32N 51°16' E 004°13'0 0.0
2014-Oct-30 15:26N 51°16' E 004°13'0 0.0
2014-Oct-30 14:32N 51°16' E 004°13'0 0.0
2014-Oct-30 13:32N 51°16' E 004°13'0 0.0
2014-Oct-30 12:32N 51°16' E 004°13'0 0.0
2014-Oct-30 11:32N 51°16' E 004°13'0 0.0
2014-Oct-30 10:29N 51°16' E 004°13'0 0.0
2014-Oct-30 09:32N 51°16' E 004°13'0 0.0
2014-Oct-30 08:32N 51°16' E 004°13'0 0.0
2014-Oct-30 07:32N 51°16' E 004°13'0 0.0
2014-Oct-30 06:29N 51°16' E 004°13'0 0.0
2014-Oct-30 05:32N 51°16' E 004°13'0 0.0
2014-Oct-30 04:32N 51°16' E 004°13'0 0.0
2014-Oct-30 03:32N 51°16' E 004°13'0 0.0
2014-Oct-30 02:32N 51°16' E 004°13'0 0.0
2014-Oct-30 01:26N 51°16' E 004°13'0 0.0
2014-Oct-30 00:32N 51°16' E 004°13'0 0.0
2014-Oct-29 23:32N 51°16' E 004°13'0 0.0
2014-Oct-29 22:32N 51°16' E 004°13'0 0.0
2014-Oct-29 21:26N 51°16' E 004°13'0 0.0
2014-Oct-29 20:32N 51°16' E 004°13'0 0.0
2014-Oct-29 19:29N 51°16' E 004°13'0 0.0
2014-Oct-29 18:32N 51°16' E 004°13'0 0.0
2014-Oct-29 17:32N 51°16' E 004°13'0 0.0
2014-Oct-29 16:26N 51°16' E 004°13'0 0.0
2014-Oct-29 15:32N 51°16' E 004°13'0 0.0
2014-Oct-29 14:32N 51°16' E 004°13'0 0.0
2014-Oct-29 13:29N 51°16' E 004°13'0 0.0
2014-Oct-29 12:32N 51°16' E 004°13'0 0.0
2014-Oct-29 11:32N 51°16' E 004°13'0 0.0
2014-Oct-29 10:32N 51°16' E 004°13'0 0.0
2014-Oct-29 09:32N 51°16' E 004°13'0 0.0
2014-Oct-29 08:32N 51°16' E 004°13'0 0.0
2014-Oct-29 07:32N 51°16' E 004°13'0 0.0
2014-Oct-29 06:32N 51°16' E 004°13'0 0.0
2014-Oct-29 05:32N 51°16' E 004°13'0 0.0
2014-Oct-29 04:32N 51°16' E 004°13'0 0.0
2014-Oct-29 03:26N 51°16' E 004°13'0 0.0
2014-Oct-29 02:29N 51°16' E 004°13'0 0.0
2014-Oct-29 01:32N 51°16' E 004°13'0 0.0
2014-Oct-29 00:29N 51°16' E 004°13'0 0.0
2014-Oct-28 23:32N 51°16' E 004°13'0 0.0
2014-Oct-28 22:32N 51°16' E 004°13'0 0.0
2014-Oct-28 21:26N 51°16' E 004°13'0 0.0
2014-Oct-28 20:32N 51°16' E 004°13'0 0.0
2014-Oct-28 19:32N 51°16' E 004°13'0 0.0
2014-Oct-28 18:23N 51°16' E 004°13'0 0.0
2014-Oct-28 17:32N 51°16' E 004°13'0 0.0
2014-Oct-28 16:32N 51°16' E 004°13'0 0.0
2014-Oct-28 15:26N 51°16' E 004°13'0 0.0
2014-Oct-28 14:26N 51°16' E 004°13'0 0.0
2014-Oct-28 13:32N 51°16' E 004°13'0 0.0
2014-Oct-28 12:29N 51°16' E 004°13'0 0.0
2014-Oct-28 11:32N 51°16' E 004°13'0 0.0
2014-Oct-28 10:32N 51°16' E 004°13'0 0.0
2014-Oct-28 09:29N 51°16' E 004°13'0 0.0
2014-Oct-28 08:26N 51°16' E 004°13'0 0.0
2014-Oct-28 07:26N 51°16' E 004°13'0 0.0
2014-Oct-28 06:32N 51°16' E 004°13'  

Dump ship's entire track history